Flight Track Log - Related Links

Times and Time Zones

All times are in EDT time to prevent confusion due to time zone crossing. See the UAL5999 flight status page for this flight to view local times or setup timezone preferences in your user account.

Time Position Orientation Groundspeed Altitude Reporting Facility
EDT Latitude Longitude Course Direction KTS MPH feet Rate Location/Type
Mon 08:22:56 PM 39.7333 -86.3000 252° West 148 170 1,500  Level Indianapolis TRACON
Mon 08:23:38 PM 39.7500 -86.2667 33° Northeast 149 171 3,500 2,466 Climbing Indianapolis TRACON
Mon 08:24:09 PM 39.7631 -86.2472 49° Northeast 176 203 4,500 1,826 Climbing Indianapolis Center
Mon 08:25:10 PM 39.7856 -86.3036 297° West 233 268 6,300 2,585 Climbing Indianapolis Center
Mon 08:26:00 PM 39.5877 -86.8123 256° West  Level FlightAware Approximate
Mon 08:26:12 PM 39.7558 -86.4083 250° West 263 303 9,800  Level Indianapolis Center
Mon 08:27:00 PM 39.5537 -86.9426 237° Southwest  Level FlightAware Approximate
Mon 08:27:14 PM 39.7278 -86.4964 248° West 263 303 11,700  Level Indianapolis Center
Mon 08:28:00 PM 39.5192 -87.0735 252° West  Level FlightAware Approximate
Mon 08:28:15 PM 39.6972 -86.6014 249° West 309 356 13,000  Level Indianapolis Center
Mon 08:29:17 PM 39.6911 -86.7233 266° West 337 388 14,300 1,403 Climbing Indianapolis Center
Mon 08:30:19 PM 39.6867 -86.8497 267° West 344 396 15,900 1,902 Climbing Indianapolis Center
Mon 08:31:20 PM 39.6811 -86.9778 267° West 352 405 18,200 1,756 Climbing Indianapolis Center
Mon 08:32:22 PM 39.6756 -87.1036 267° West 352 405 19,500 1,403 Climbing Indianapolis Center
Mon 08:33:24 PM 39.6683 -87.2597 267° West 359 413 21,100 1,512 Climbing Indianapolis Center
Mon 08:34:25 PM 39.6619 -87.3919 266° West 363 418 22,600 1,415 Climbing Indianapolis Center
Mon 08:35:27 PM 39.6564 -87.5239 267° West 364 419 24,000 1,403 Climbing Indianapolis Center
Mon 08:36:29 PM 39.6500 -87.6561 266° West 367 422 25,500 1,362 Climbing Indianapolis Center
Mon 08:38:32 PM 39.6372 -87.9211 267° West 368 423 28,200 1,330 Climbing Indianapolis Center
Mon 08:39:34 PM 39.6292 -88.0664 266° West 367 422 29,600 1,190 Climbing Indianapolis Center
Mon 08:40:28 PM 39.6217 -88.1764 265° West 368 423 30,500 1,148 Climbing Kansas City Center
Mon 08:41:29 PM 39.6386 -88.3089 279° West 372 428 31,800 1,392 Climbing Kansas City Center
Mon 08:42:33 PM 39.6653 -88.4442 284° West 366 421 33,400 1,366 Climbing Kansas City Center
Mon 08:43:32 PM 39.6894 -88.5667 284° West 356 410 34,600 1,140 Climbing Kansas City Center
Mon 08:44:34 PM 39.7156 -88.6881 286° West 354 407 35,700 672 Climbing Kansas City Center
Mon 08:45:37 PM 39.7381 -88.8081 284° West 347 399 36,000 103 Climbing Kansas City Center
Mon 08:47:28 PM 39.7889 -89.0706 284° West 384 442 36,000  Level Chicago Center
Mon 08:48:30 PM 39.8153 -89.2119 284° West 400 460 36,000  Level Chicago Center
Mon 08:49:32 PM 39.8425 -89.3578 284° West 414 476 36,000  Level Chicago Center
Mon 08:50:33 PM 39.8683 -89.5031 283° West 411 473 36,000  Level Chicago Center
Mon 08:51:35 PM 39.8964 -89.6489 284° West 413 475 36,000  Level Chicago Center
Mon 08:52:37 PM 39.9233 -89.7958 283° West 415 478 36,000  Level Chicago Center
Mon 08:53:48 PM 39.9544 -89.9739 283° West 414 476 36,000  Level Kansas City Center
Mon 08:54:50 PM 39.9814 -90.1219 283° West 414 476 36,000  Level Kansas City Center
Mon 08:55:51 PM 40.0069 -90.2719 283° West 416 479 36,000  Level Kansas City Center
Mon 08:56:51 PM 40.0342 -90.4206 283° West 418 481 36,000  Level Kansas City Center
Mon 08:57:55 PM 40.0600 -90.5714 283° West 419 482 36,000  Level Kansas City Center
Mon 08:58:56 PM 40.0931 -90.7542 283° West 426 490 36,000  Level Kansas City Center
Mon 08:59:56 PM 40.1178 -90.9033 282° West 426 490 36,000  Level Kansas City Center
Mon 09:00:57 PM 40.1431 -91.0531 283° West 425 489 36,000  Level Kansas City Center
Mon 09:02:00 PM 40.1678 -91.2008 282° West 425 489 36,000  Level Kansas City Center
Mon 09:03:02 PM 40.1925 -91.3506 282° West 425 489 36,000  Level Kansas City Center
Mon 09:04:03 PM 40.2178 -91.4997 283° West 425 489 36,000  Level Kansas City Center
Mon 09:05:03 PM 40.2419 -91.6489 282° West 424 488 36,000  Level Kansas City Center
Mon 09:06:07 PM 40.2697 -91.8281 282° West 424 488 36,000  Level Kansas City Center
Mon 09:07:08 PM 40.2953 -91.9786 283° West 424 488 36,000  Level Kansas City Center
Mon 09:08:09 PM 40.3189 -92.1283 282° West 425 489 36,000  Level Kansas City Center
Mon 09:09:10 PM 40.3425 -92.2772 282° West 424 488 36,000  Level Kansas City Center
Mon 09:10:13 PM 40.3683 -92.4414 282° West 424 488 36,000  Level Kansas City Center
Mon 09:11:13 PM 40.3917 -92.5911 282° West 423 487 36,000  Level Kansas City Center
Mon 09:12:15 PM 40.4147 -92.7481 281° West 421 484 36,000  Level Kansas City Center
Mon 09:14:05 PM 40.4572 -93.0208 282° West 432 497 36,000  Level Minneapolis Center
Mon 09:15:07 PM 40.4861 -93.2078 282° West 436 502 36,000  Level Minneapolis Center
Mon 09:16:09 PM 40.5081 -93.3608 281° West 435 501 36,000  Level Minneapolis Center
Mon 09:17:10 PM 40.5283 -93.5139 280° West 433 498 36,000  Level Minneapolis Center
Mon 09:18:14 PM 40.5517 -93.6661 281° West 429 494 36,000  Level Minneapolis Center
Mon 09:19:16 PM 40.5742 -93.8178 281° West 429 494 36,000  Level Minneapolis Center
Mon 09:20:17 PM 40.6042 -94.0019 282° West 429 494 36,000  Level Minneapolis Center
Mon 09:21:19 PM 40.6539 -94.1450 295° West 430 495 36,000  Level Minneapolis Center
Mon 09:22:21 PM 40.7019 -94.2883 294° West 430 495 36,000  Level Minneapolis Center
Mon 09:23:23 PM 40.7500 -94.4356 293° West 433 498 36,000  Level Minneapolis Center
Mon 09:24:25 PM 40.8042 -94.5956 294° West 434 499 36,000  Level Minneapolis Center
Mon 09:25:26 PM 40.8506 -94.7431 293° West 434 499 36,000  Level Minneapolis Center
Mon 09:26:28 PM 40.8981 -94.8878 294° West 434 499 36,000  Level Minneapolis Center
Mon 09:27:30 PM 40.9450 -95.0322 293° West 431 496 36,000  Level Minneapolis Center
Mon 09:28:32 PM 40.9914 -95.1789 293° West 431 496 36,000  Level Minneapolis Center
Mon 09:29:34 PM 41.0386 -95.3253 293° West 432 497 36,000  Level Minneapolis Center
Mon 09:30:35 PM 41.0953 -95.4986 293° West 431 496 36,000  Level Minneapolis Center
Mon 09:31:37 PM 41.1403 -95.6392 293° West 431 496 36,000  Level Minneapolis Center
Mon 09:32:39 PM 41.1894 -95.7864 294° West 432 497 36,000  Level Minneapolis Center
Mon 09:33:40 PM 41.2367 -95.9339 293° West 433 498 36,000  Level Minneapolis Center
Mon 09:34:42 PM 41.2836 -96.0783 293° West 431 496 36,000  Level Minneapolis Center
Mon 09:35:44 PM 41.3275 -96.2233 292° West 427 491 36,000  Level Minneapolis Center
Mon 09:36:45 PM 41.3797 -96.3847 293° West 425 489 36,000  Level Minneapolis Center
Mon 09:37:47 PM 41.4264 -96.5283 293° West 425 489 36,000  Level Minneapolis Center
Mon 09:38:48 PM 41.4303 -96.6833 272° West 423 487 36,000  Level Minneapolis Center
Mon 09:39:50 PM 41.4261 -96.8400 268° West 423 487 36,000  Level Minneapolis Center
Mon 09:40:51 PM 41.4211 -96.9956 268° West 423 487 36,000  Level Minneapolis Center
Mon 09:41:53 PM 41.4158 -97.1842 268° West 423 487 36,000  Level Minneapolis Center
Mon 09:42:54 PM 41.4114 -97.3417 268° West 423 487 36,000  Level Minneapolis Center
Mon 09:43:56 PM 41.4067 -97.4978 268° West 423 487 36,000  Level Minneapolis Center
Mon 09:44:57 PM 41.4003 -97.6550 267° West 424 488 36,000  Level Minneapolis Center
Mon 09:45:59 PM 41.3964 -97.8114 268° West 423 487 36,000  Level Minneapolis Center
Mon 09:47:00 PM 41.3900 -97.9675 267° West 424 488 36,000  Level Minneapolis Center
Mon 09:48:01 PM 41.3842 -98.1383 267° West 424 488 36,000  Level Minneapolis Center
Mon 09:49:03 PM 41.3772 -98.2953 267° West 424 488 36,000  Level Minneapolis Center
Mon 09:50:04 PM 41.3517 -98.4508 258° West 431 496 36,000  Level Minneapolis Center
Mon 09:51:05 PM 41.3081 -98.6261 252° West 443 510 36,000  Level Minneapolis Center
Mon 09:52:07 PM 41.2689 -98.7844 252° West 448 516 36,000  Level Minneapolis Center
Mon 09:53:08 PM 41.2292 -98.9419 252° West 449 517 36,000  Level Minneapolis Center
Mon 09:54:09 PM 41.1908 -99.1006 252° West 449 517 36,000  Level Minneapolis Center
Mon 09:55:11 PM 41.1508 -99.2594 252° West 449 517 36,000  Level Minneapolis Center
Mon 09:56:12 PM 41.1106 -99.4172 251° West 449 517 36,000  Level Minneapolis Center
Mon 09:56:42 PM 41.0889 -99.4992 251° West 451 519 36,000  Level Denver Center
Mon 09:57:44 PM 41.0500 -99.6731 254° West 454 522 36,000  Level Denver Center
Mon 09:58:46 PM 41.0333 -99.8322 262° West 446 513 36,000  Level Denver Center
Mon 09:59:49 PM 41.0111 -100.0147 261° West 446 513 36,000  Level Denver Center
Mon 10:00:50 PM 40.9953 -100.1453 261° West 448 516 36,000  Level Denver Center
Mon 10:01:53 PM 40.9686 -100.3578 261° West 457 526 36,000  Level Denver Center
Mon 10:02:55 PM 40.9481 -100.5183 260° West 460 529 36,000  Level Denver Center
Mon 10:03:57 PM 40.9242 -100.7017 260° West 462 532 36,000  Level Denver Center
Mon 10:04:59 PM 40.9033 -100.8542 260° West 460 529 36,000  Level Denver Center
Mon 10:06:01 PM 40.8806 -101.0369 261° West 458 527 36,000  Level Denver Center
Mon 10:07:03 PM 40.8592 -101.1922 260° West 455 524 36,000 -390 Level Denver Center
Mon 10:08:04 PM 40.8344 -101.3728 260° West 454 522 35,200 -1,220 Descending Denver Center
Mon 10:09:06 PM 40.8164 -101.5156 261° West 415 478 33,500 -1,412 Descending Denver Center
Mon 10:10:20 PM 40.7928 -101.6831 260° West 413 475 32,000 -657 Descending Denver Center
Mon 10:11:23 PM 40.7692 -101.8544 260° West 424 488 32,000  Level Denver Center
Mon 10:12:24 PM 40.7447 -102.0292 260° West 431 496 32,000  Level Denver Center
Mon 10:13:26 PM 40.7214 -102.1811 259° West 440 506 32,000  Level Denver Center
Mon 10:14:28 PM 40.6972 -102.3625 260° West 447 514 32,000  Level Denver Center
Mon 10:15:30 PM 40.6744 -102.5169 259° West 448 516 32,000  Level Denver Center
Mon 10:16:32 PM 40.6478 -102.6958 259° West 448 516 32,000  Level Denver Center
Mon 10:17:34 PM 40.6242 -102.8581 259° West 450 518 32,000  Level Denver Center
Mon 10:18:36 PM 40.5997 -103.0203 259° West 451 519 32,000  Level Denver Center
Mon 10:19:38 PM 40.5753 -103.1817 259° West 453 521 32,000 -195 Level Denver Center
Mon 10:20:39 PM 40.5514 -103.3422 259° West 452 520 31,600 -829 Descending Denver Center
Mon 10:21:41 PM 40.5267 -103.4989 258° West 445 512 30,300 -2,129 Descending Denver Center
Mon 10:22:43 PM 40.4969 -103.6883 258° West 445 512 27,200 -2,516 Descending Denver Center
Mon 10:23:45 PM 40.4686 -103.8394 256° West 432 497 25,100 -1,984 Descending Denver Center
Mon 10:24:47 PM 40.3881 -103.9569 228° Southwest 441 507 23,100 -2,419 Descending Denver Center
Mon 10:25:49 PM 40.2961 -104.0725 224° Southwest 423 487 20,100 -2,129 Descending Denver Center
Mon 10:26:51 PM 40.2150 -104.1581 219° Southwest 377 434 18,700 -1,610 Descending Denver Center
Mon 10:27:52 PM 40.1417 -104.2381 220° Southwest 341 392 16,800 -1,561 Descending Denver Center
Mon 10:28:54 PM 40.0664 -104.3200 220° Southwest 327 376 15,500 -1,113 Descending Denver Center
Mon 10:29:56 PM 40.0011 -104.3897 219° Southwest 307 353 14,500 -1,016 Descending Denver Center
Mon 10:30:58 PM 39.9358 -104.4603 220° Southwest 306 352 13,400 -1,355 Descending Denver Center
Mon 10:32:00 PM 39.8544 -104.4994 200° South 304 350 11,700 -1,366 Descending Denver Center
Mon 10:33:01 PM 39.7733 -104.5008 181° South 293 337 10,600 -1,024 Descending Denver Center
Mon 10:34:03 PM 39.6992 -104.5064 183° South 272 313 9,600 -968 Descending Denver Center
Mon 10:35:05 PM 39.6828 -104.5883 255° West 225 259 8,600 -878 Descending Denver Center
Mon 10:36:06 PM 39.7228 -104.6261 324° Northwest 186 214 7,800 -878 Descending Denver Center
Mon 10:37:08 PM 39.7656 -104.6436 343° North 170 196 6,800 -968 Descending Denver Center
Mon 10:38:10 PM 39.8081 -104.6422 North 146 168 5,800 -732 Descending Denver Center
Mon 10:39:11 PM 39.8453 -104.6414 North 142 163 5,300 -492 Descending Denver Center

Login

Don't have an account? Register now (free) for customized features, flight alerts, and more!